Time;durP1;ratioP1;P1;durP2;ratioP2;P2;SDS_P1;SDS_P2;PMS_P1;PMS_P2;Temp;Humidity;BMP_temperature;BMP_pressure;BME280_temperature;BME280_humidity;BME280_pressure;Samples;Min_cycle;Max_cycle;Signal;HPM_P1;HPM_P2
2022/09/06 00:00:21;;;;;;;0.30;0.30;;;;;;;;;;7380395;19;20570;-75
2022/09/06 00:02:47;;;;;;;0.30;0.30;;;;;;;;;;7380314;19;20392;-73
2022/09/06 00:05:12;;;;;;;0.50;0.50;;;;;;;;;;7382938;19;20109;-73
2022/09/06 00:07:38;;;;;;;0.30;0.30;;;;;;;;;;7385047;19;20121;-73
2022/09/06 00:10:03;;;;;;;0.30;0.30;;;;;;;;;;7380017;19;20143;-73
2022/09/06 00:12:29;;;;;;;0.85;0.85;;;;;;;;;;7374969;19;20124;-73
2022/09/06 00:14:54;;;;;;;0.30;0.30;;;;;;;;;;7383525;19;20178;-74
2022/09/06 00:17:19;;;;;;;0.30;0.30;;;;;;;;;;7384913;19;20587;-73
2022/09/06 00:19:45;;;;;;;0.30;0.30;;;;;;;;;;7377838;19;20121;-73
2022/09/06 00:22:10;;;;;;;0.30;0.30;;;;;;;;;;7381935;19;20117;-74
2022/09/06 00:24:36;;;;;;;0.40;0.40;;;;;;;;;;7379320;19;20157;-74
2022/09/06 00:27:03;;;;;;;0.60;0.60;;;;;;;;;;7384656;19;20129;-73
2022/09/06 00:29:28;;;;;;;0.30;0.30;;;;;;;;;;7378916;19;20128;-75
2022/09/06 00:31:54;;;;;;;0.43;0.43;;;;;;;;;;7379728;19;20100;-73
2022/09/06 00:34:19;;;;;;;0.30;0.30;;;;;;;;;;7380966;19;20156;-73
2022/09/06 00:36:44;;;;;;;0.40;0.40;;;;;;;;;;7383101;19;20117;-73
2022/09/06 00:39:09;;;;;;;0.82;0.82;;;;;;;;;;7379286;19;20479;-73
2022/09/06 00:41:35;;;;;;;0.30;0.30;;;;;;;;;;7383347;19;20133;-75
2022/09/06 00:44:00;;;;;;;0.20;0.20;;;;;;;;;;7381989;19;20121;-74
2022/09/06 00:46:28;;;;;;;0.30;0.30;;;;;;;;;;7379113;19;20415;-74
2022/09/06 00:49:01;;;;;;;0.30;0.30;;;;;;;;;;7379243;19;20640;-75
2022/09/06 00:51:28;;;;;;;0.40;0.40;;;;;;;;;;7381116;19;20151;-75
2022/09/06 00:53:53;;;;;;;0.30;0.30;;;;;;;;;;7380691;19;20664;-73
2022/09/06 00:56:19;;;;;;;0.30;0.30;;;;;;;;;;7374904;19;20491;-73
2022/09/06 00:58:44;;;;;;;0.30;0.30;;;;;;;;;;7377160;19;20128;-74
2022/09/06 01:01:10;;;;;;;0.30;0.30;;;;;;;;;;7380064;19;20122;-75
2022/09/06 01:03:36;;;;;;;0.30;0.30;;;;;;;;;;7381207;19;20156;-73
2022/09/06 01:06:23;;;;;;;0.30;0.30;;;;;;;;;;7383102;19;20223;-73
2022/09/06 01:09:06;;;;;;;0.30;0.30;;;;;;;;;;7380506;19;20113;-73
2022/09/06 01:12:00;;;;;;;0.43;0.43;;;;;;;;;;7378660;19;20226;-73
2022/09/06 01:14:37;;;;;;;0.38;0.38;;;;;;;;;;7379863;19;20129;-73
2022/09/06 01:17:07;;;;;;;0.32;0.32;;;;;;;;;;7379670;19;20121;-74
2022/09/06 01:19:51;;;;;;;0.30;0.30;;;;;;;;;;7382048;19;20142;-74
2022/09/06 01:22:52;;;;;;;0.30;0.30;;;;;;;;;;7383676;19;20125;-74
2022/09/06 01:25:39;;;;;;;0.30;0.30;;;;;;;;;;7382091;19;20197;-74
2022/09/06 01:28:33;;;;;;;0.30;0.30;;;;;;;;;;7380695;19;20598;-74
2022/09/06 01:31:15;;;;;;;0.38;0.38;;;;;;;;;;7378627;19;20559;-73
2022/09/06 01:34:02;;;;;;;0.30;0.30;;;;;;;;;;7380561;19;20630;-74
2022/09/06 01:36:35;;;;;;;0.30;0.30;;;;;;;;;;7383618;19;20113;-74
2022/09/06 01:39:01;;;;;;;0.30;0.30;;;;;;;;;;7379593;19;20169;-74
2022/09/06 01:41:27;;;;;;;0.30;0.30;;;;;;;;;;7384084;19;20587;-74
2022/09/06 01:43:53;;;;;;;0.60;0.60;;;;;;;;;;7381233;19;20129;-73
2022/09/06 01:46:39;;;;;;;0.40;0.40;;;;;;;;;;7385056;19;20125;-74
2022/09/06 01:49:28;;;;;;;0.50;0.50;;;;;;;;;;7380567;19;20188;-73
2022/09/06 01:51:56;;;;;;;0.30;0.30;;;;;;;;;;7376858;19;20109;-74
2022/09/06 01:54:40;;;;;;;0.40;0.40;;;;;;;;;;7376607;19;20129;-74
2022/09/06 01:57:23;;;;;;;0.73;0.73;;;;;;;;;;7381549;19;20533;-74
2022/09/06 01:59:51;;;;;;;0.30;0.30;;;;;;;;;;7374374;19;20120;-74
2022/09/06 02:02:27;;;;;;;0.30;0.30;;;;;;;;;;7377821;19;20199;-74
2022/09/06 02:05:00;;;;;;;0.30;0.30;;;;;;;;;;7376769;19;20116;-73
2022/09/06 02:07:27;;;;;;;0.30;0.30;;;;;;;;;;7377436;19;20122;-73
2022/09/06 02:09:57;;;;;;;0.82;0.82;;;;;;;;;;7373514;19;20113;-73
2022/09/06 02:12:24;;;;;;;0.40;0.40;;;;;;;;;;7378177;19;20161;-73
2022/09/06 02:14:57;;;;;;;0.30;0.30;;;;;;;;;;7376027;19;20458;-73
2022/09/06 02:17:28;;;;;;;0.30;0.30;;;;;;;;;;7379985;19;20122;-73
2022/09/06 02:20:12;;;;;;;0.30;0.30;;;;;;;;;;7375628;19;20121;-73
2022/09/06 02:22:43;;;;;;;0.30;0.30;;;;;;;;;;7376939;19;20153;-73
2022/09/06 02:25:10;;;;;;;0.30;0.30;;;;;;;;;;7379702;19;20526;-73
2022/09/06 02:27:36;;;;;;;0.40;0.40;;;;;;;;;;7376356;19;20497;-74
2022/09/06 02:30:02;;;;;;;0.30;0.30;;;;;;;;;;7378413;19;20117;-73
2022/09/06 02:32:32;;;;;;;0.60;0.60;;;;;;;;;;7373631;19;20599;-73
2022/09/06 02:34:57;;;;;;;0.30;0.30;;;;;;;;;;7378857;19;20603;-74
2022/09/06 02:37:24;;;;;;;0.30;0.30;;;;;;;;;;7377499;19;20117;-74
2022/09/06 02:39:50;;;;;;;0.40;0.40;;;;;;;;;;7377707;19;20137;-73
2022/09/06 02:42:16;;;;;;;0.30;0.30;;;;;;;;;;7375367;19;20125;-73
2022/09/06 02:44:42;;;;;;;0.30;0.30;;;;;;;;;;7381479;19;20133;-74
2022/09/06 02:49:35;;;;;;;0.30;0.30;;;;;;;;;;7385568;19;20141;-74
2022/09/06 14:48:30;;;;;;;0.30;0.30;;;;;;;;;;7371296;19;20523;-73
2022/09/06 14:50:55;;;;;;;0.50;0.50;;;;;;;;;;7382785;19;20144;-74
2022/09/06 14:53:20;;;;;;;0.30;0.30;;;;;;;;;;7368744;19;20238;-73
2022/09/06 14:55:46;;;;;;;0.35;0.35;;;;;;;;;;7366414;19;20665;-73
2022/09/06 14:58:13;;;;;;;0.40;0.40;;;;;;;;;;7370557;19;20469;-73
2022/09/06 15:00:39;;;;;;;0.30;0.30;;;;;;;;;;7372141;19;20136;-73
2022/09/06 15:03:04;;;;;;;0.30;0.30;;;;;;;;;;7373083;19;20121;-74
2022/09/06 15:05:29;;;;;;;0.40;0.40;;;;;;;;;;7373916;19;20105;-73
2022/09/06 15:07:54;;;;;;;0.38;0.38;;;;;;;;;;7377250;19;20113;-74
2022/09/06 15:10:20;;;;;;;0.95;0.85;;;;;;;;;;7376739;19;20595;-73
2022/09/06 15:12:45;;;;;;;0.30;0.30;;;;;;;;;;7374361;19;20709;-73
2022/09/06 15:15:10;;;;;;;0.20;0.20;;;;;;;;;;7382069;19;20169;-74
2022/09/06 15:17:36;;;;;;;0.68;0.60;;;;;;;;;;7377876;19;20120;-73
2022/09/06 15:20:02;;;;;;;0.73;0.73;;;;;;;;;;7379591;19;20117;-73
2022/09/06 15:22:27;;;;;;;0.32;0.32;;;;;;;;;;7374782;19;20644;-74
2022/09/06 15:24:53;;;;;;;0.38;0.38;;;;;;;;;;7379123;19;20647;-74
2022/09/06 15:27:18;;;;;;;0.30;0.30;;;;;;;;;;7379272;19;20113;-73
2022/09/06 15:29:44;;;;;;;0.30;0.30;;;;;;;;;;7380664;19;20121;-74
2022/09/06 15:32:09;;;;;;;0.40;0.40;;;;;;;;;;7381516;19;20113;-74
2022/09/06 15:34:34;;;;;;;0.77;0.77;;;;;;;;;;7378399;19;20164;-74
2022/09/06 15:37:00;;;;;;;0.32;0.32;;;;;;;;;;7381383;19;20121;-73
2022/09/06 15:39:25;;;;;;;0.32;0.32;;;;;;;;;;7380076;19;20108;-73
2022/09/06 15:41:50;;;;;;;0.30;0.30;;;;;;;;;;7378200;19;20198;-73
2022/09/06 15:44:18;;;;;;;1.27;0.82;;;;;;;;;;7374042;19;20121;-74
2022/09/06 15:46:53;;;;;;;0.30;0.30;;;;;;;;;;7375526;19;20127;-73
2022/09/06 15:49:25;;;;;;;0.30;0.30;;;;;;;;;;7381946;19;20105;-73
2022/09/06 15:51:51;;;;;;;0.50;0.50;;;;;;;;;;7378489;19;20624;-73
2022/09/06 15:54:18;;;;;;;0.30;0.30;;;;;;;;;;7373893;19;20149;-73
2022/09/06 15:56:44;;;;;;;0.30;0.30;;;;;;;;;;7377769;19;20454;-73
2022/09/06 15:59:10;;;;;;;0.30;0.30;;;;;;;;;;7375411;19;20113;-73
2022/09/06 16:01:36;;;;;;;0.40;0.40;;;;;;;;;;7371993;19;21007;-72
2022/09/06 16:04:02;;;;;;;0.30;0.30;;;;;;;;;;7376011;19;20124;-72
2022/09/06 16:06:30;;;;;;;0.30;0.30;;;;;;;;;;7371957;19;20476;-73
2022/09/06 16:09:07;;;;;;;0.30;0.30;;;;;;;;;;7374947;19;20121;-73
2022/09/06 16:11:35;;;;;;;0.30;0.30;;;;;;;;;;7376121;19;20189;-73
2022/09/06 16:14:00;;;;;;;0.30;0.30;;;;;;;;;;7373421;19;20113;-72
2022/09/06 16:16:26;;;;;;;0.30;0.30;;;;;;;;;;7374318;19;20185;-73
2022/09/06 16:18:51;;;;;;;0.40;0.40;;;;;;;;;;7374701;19;20105;-73
2022/09/06 16:21:23;;;;;;;0.30;0.30;;;;;;;;;;7372602;19;20105;-73
2022/09/06 16:23:51;;;;;;;0.32;0.32;;;;;;;;;;7371135;19;20137;-73
2022/09/06 16:26:16;;;;;;;0.30;0.30;;;;;;;;;;7378139;19;20134;-73
2022/09/06 16:28:42;;;;;;;0.32;0.32;;;;;;;;;;7377952;19;20719;-73
2022/09/06 16:31:08;;;;;;;0.30;0.30;;;;;;;;;;7373679;19;20218;-73
2022/09/06 16:33:35;;;;;;;0.75;0.75;;;;;;;;;;7373259;19;20125;-73
2022/09/06 16:36:04;;;;;;;0.43;0.43;;;;;;;;;;7374760;19;20105;-73
2022/09/06 16:38:32;;;;;;;0.30;0.30;;;;;;;;;;7376420;19;20117;-73
2022/09/06 16:40:59;;;;;;;0.30;0.30;;;;;;;;;;7378062;19;20505;-73
2022/09/06 16:43:25;;;;;;;0.50;0.50;;;;;;;;;;7376656;19;20125;-73
2022/09/06 16:45:57;;;;;;;0.30;0.30;;;;;;;;;;7374893;19;20106;-73
2022/09/06 16:48:24;;;;;;;0.30;0.30;;;;;;;;;;7374564;19;20124;-73
2022/09/06 16:50:49;;;;;;;0.30;0.30;;;;;;;;;;7374579;19;20113;-73
2022/09/06 16:53:15;;;;;;;0.30;0.30;;;;;;;;;;7376133;19;20472;-73
2022/09/06 16:55:40;;;;;;;0.30;0.30;;;;;;;;;;7376179;19;20121;-73
2022/09/06 16:58:06;;;;;;;0.30;0.30;;;;;;;;;;7374770;19;20590;-73
2022/09/06 17:00:31;;;;;;;0.30;0.30;;;;;;;;;;7371778;19;20558;-72
2022/09/06 17:02:57;;;;;;;1.10;1.02;;;;;;;;;;7371022;19;20121;-73
2022/09/06 17:05:23;;;;;;;0.30;0.30;;;;;;;;;;7375403;19;20128;-73
2022/09/06 17:07:48;;;;;;;1.95;1.20;;;;;;;;;;7376494;19;20121;-72
2022/09/06 17:10:13;;;;;;;0.30;0.30;;;;;;;;;;7375545;19;20587;-73
2022/09/06 17:12:39;;;;;;;0.30;0.30;;;;;;;;;;7373119;19;20104;-73
2022/09/06 17:15:05;;;;;;;0.30;0.30;;;;;;;;;;7378942;19;20582;-73
2022/09/06 17:17:30;;;;;;;0.30;0.30;;;;;;;;;;7377276;19;20225;-73
2022/09/06 17:19:55;;;;;;;0.30;0.30;;;;;;;;;;7375291;19;20149;-73
2022/09/06 17:22:21;;;;;;;0.30;0.30;;;;;;;;;;7368544;19;20113;-73
2022/09/06 17:24:46;;;;;;;0.30;0.30;;;;;;;;;;7372238;19;20436;-72
2022/09/06 17:27:11;;;;;;;0.40;0.40;;;;;;;;;;7377313;19;20120;-73
2022/09/06 17:29:38;;;;;;;0.30;0.30;;;;;;;;;;7375112;19;20136;-73
2022/09/06 17:32:08;;;;;;;0.30;0.30;;;;;;;;;;7374805;19;20141;-72
2022/09/06 17:34:34;;;;;;;0.40;0.40;;;;;;;;;;7372900;19;20522;-73
2022/09/06 17:37:00;;;;;;;0.30;0.30;;;;;;;;;;7373093;19;20133;-73
2022/09/06 17:39:25;;;;;;;0.30;0.30;;;;;;;;;;7373834;19;20105;-73
2022/09/06 17:41:52;;;;;;;0.30;0.30;;;;;;;;;;7374235;19;20188;-73
2022/09/06 17:44:20;;;;;;;0.30;0.30;;;;;;;;;;7370002;19;20125;-74
2022/09/06 17:46:46;;;;;;;0.30;0.30;;;;;;;;;;7377153;19;20098;-74
2022/09/06 17:49:12;;;;;;;0.30;0.30;;;;;;;;;;7371305;19;20126;-72
2022/09/06 17:51:38;;;;;;;0.45;0.45;;;;;;;;;;7371655;19;20117;-73
2022/09/06 17:54:04;;;;;;;0.30;0.30;;;;;;;;;;7371851;19;20124;-72
2022/09/06 17:56:30;;;;;;;0.30;0.30;;;;;;;;;;7377696;19;20120;-73
2022/09/06 17:58:58;;;;;;;0.40;0.40;;;;;;;;;;7374088;19;20113;-72
2022/09/06 18:01:25;;;;;;;0.30;0.30;;;;;;;;;;7370686;19;20626;-73
2022/09/06 18:03:51;;;;;;;0.30;0.30;;;;;;;;;;7377200;19;20162;-73
2022/09/06 18:06:19;;;;;;;0.30;0.30;;;;;;;;;;7380079;19;20114;-73
2022/09/06 18:08:46;;;;;;;0.30;0.30;;;;;;;;;;7377407;19;20121;-73
2022/09/06 18:11:27;;;;;;;0.30;0.30;;;;;;;;;;7374566;19;20128;-73
2022/09/06 18:14:06;;;;;;;0.30;0.30;;;;;;;;;;7375403;19;20184;-73
2022/09/06 18:16:33;;;;;;;0.30;0.30;;;;;;;;;;7383133;19;20121;-73
2022/09/06 18:18:59;;;;;;;0.30;0.30;;;;;;;;;;7375996;19;20152;-73
2022/09/06 18:21:26;;;;;;;0.30;0.30;;;;;;;;;;7381651;19;20320;-72
2022/09/06 18:23:53;;;;;;;0.30;0.30;;;;;;;;;;7376789;19;20121;-73
2022/09/06 18:26:19;;;;;;;0.30;0.30;;;;;;;;;;7376514;19;20132;-73
2022/09/06 18:28:44;;;;;;;0.30;0.30;;;;;;;;;;7384815;19;20097;-73
2022/09/06 18:31:11;;;;;;;0.30;0.30;;;;;;;;;;7383771;19;20121;-73
2022/09/06 18:33:38;;;;;;;0.30;0.30;;;;;;;;;;7380081;19;20121;-72
2022/09/06 18:36:05;;;;;;;0.30;0.30;;;;;;;;;;7382616;19;20567;-72
2022/09/06 18:38:30;;;;;;;0.30;0.30;;;;;;;;;;7383584;19;20113;-72
2022/09/06 18:40:58;;;;;;;0.30;0.30;;;;;;;;;;7382215;19;20440;-73
2022/09/06 18:43:28;;;;;;;0.30;0.30;;;;;;;;;;7378847;19;20152;-73
2022/09/06 18:46:00;;;;;;;0.30;0.30;;;;;;;;;;7378843;19;20125;-73
2022/09/06 18:48:26;;;;;;;0.30;0.30;;;;;;;;;;7376965;19;20463;-73
2022/09/06 18:50:51;;;;;;;0.30;0.30;;;;;;;;;;7384031;19;20113;-73
2022/09/06 18:53:17;;;;;;;0.30;0.30;;;;;;;;;;7368876;19;20121;-73
2022/09/06 18:55:42;;;;;;;0.40;0.40;;;;;;;;;;7379239;19;20109;-73
2022/09/06 18:58:12;;;;;;;0.30;0.30;;;;;;;;;;7379802;19;20528;-73
2022/09/06 19:00:38;;;;;;;0.30;0.30;;;;;;;;;;7377862;19;20133;-72
2022/09/06 19:03:03;;;;;;;0.30;0.30;;;;;;;;;;7377805;19;20157;-72
2022/09/06 19:05:29;;;;;;;0.30;0.30;;;;;;;;;;7373851;19;20678;-73
2022/09/06 19:07:54;;;;;;;0.30;0.30;;;;;;;;;;7378979;19;20575;-72
2022/09/06 19:10:20;;;;;;;0.30;0.30;;;;;;;;;;7384154;19;20707;-73
2022/09/06 19:12:45;;;;;;;0.30;0.30;;;;;;;;;;7386771;19;20155;-73
2022/09/06 19:15:10;;;;;;;0.30;0.30;;;;;;;;;;7386539;19;20109;-73
2022/09/06 19:17:36;;;;;;;0.30;0.30;;;;;;;;;;7385866;19;20488;-73
2022/09/06 19:20:03;;;;;;;0.30;0.30;;;;;;;;;;7382032;19;20157;-72
2022/09/06 19:22:28;;;;;;;0.30;0.30;;;;;;;;;;7380634;19;20122;-73
2022/09/06 19:24:54;;;;;;;0.30;0.30;;;;;;;;;;7381343;19;20485;-73
2022/09/06 19:27:19;;;;;;;0.30;0.30;;;;;;;;;;7382878;19;20104;-73
2022/09/06 19:29:45;;;;;;;0.30;0.30;;;;;;;;;;7383078;19;20133;-73
2022/09/06 19:32:11;;;;;;;0.30;0.30;;;;;;;;;;7378730;19;20117;-73
2022/09/06 19:34:36;;;;;;;0.30;0.30;;;;;;;;;;7379737;19;20464;-73
2022/09/06 19:37:02;;;;;;;0.30;0.30;;;;;;;;;;7375227;19;20146;-72
2022/09/06 19:39:29;;;;;;;0.40;0.40;;;;;;;;;;7377790;19;20118;-72
2022/09/06 19:41:54;;;;;;;0.40;0.40;;;;;;;;;;7379006;19;20694;-72
2022/09/06 19:44:20;;;;;;;0.40;0.40;;;;;;;;;;7380112;19;20129;-73
2022/09/06 19:46:45;;;;;;;0.30;0.30;;;;;;;;;;7381222;19;20503;-73
2022/09/06 19:49:12;;;;;;;0.30;0.30;;;;;;;;;;7380185;19;20121;-73
2022/09/06 19:51:38;;;;;;;0.30;0.30;;;;;;;;;;7377522;19;20159;-73
2022/09/06 19:54:04;;;;;;;0.32;0.32;;;;;;;;;;7372737;19;20614;-74
2022/09/06 19:56:34;;;;;;;0.30;0.30;;;;;;;;;;7381582;19;20508;-73
2022/09/06 19:59:02;;;;;;;0.43;0.43;;;;;;;;;;7380661;19;20189;-73
2022/09/06 20:01:29;;;;;;;0.30;0.30;;;;;;;;;;7377595;19;20112;-73
2022/09/06 20:03:55;;;;;;;0.45;0.45;;;;;;;;;;7377189;19;20129;-73
2022/09/06 20:06:21;;;;;;;0.30;0.30;;;;;;;;;;7376824;19;20109;-73
2022/09/06 20:08:54;;;;;;;0.38;0.38;;;;;;;;;;7377634;19;20124;-73
2022/09/06 20:11:20;;;;;;;0.30;0.30;;;;;;;;;;7378145;19;20101;-73
2022/09/06 20:13:46;;;;;;;0.30;0.30;;;;;;;;;;7379229;19;20162;-73
2022/09/06 20:16:12;;;;;;;0.40;0.40;;;;;;;;;;7378356;19;20125;-73
2022/09/06 20:18:37;;;;;;;0.40;0.40;;;;;;;;;;7377541;19;20939;-73
2022/09/06 20:21:03;;;;;;;1.17;1.17;;;;;;;;;;7377476;19;20647;-73
2022/09/06 20:23:29;;;;;;;0.40;0.40;;;;;;;;;;7378309;19;20151;-73
2022/09/06 20:26:00;;;;;;;0.30;0.30;;;;;;;;;;7366860;19;20137;-73
2022/09/06 20:28:26;;;;;;;0.30;0.30;;;;;;;;;;7370748;19;20113;-73
2022/09/06 20:30:51;;;;;;;0.30;0.30;;;;;;;;;;7373781;19;20121;-73
2022/09/06 20:33:17;;;;;;;0.30;0.30;;;;;;;;;;7371376;19;20138;-73
2022/09/06 20:35:42;;;;;;;0.30;0.30;;;;;;;;;;7371598;19;20181;-72
2022/09/06 20:38:07;;;;;;;0.30;0.30;;;;;;;;;;7371483;19;20117;-73
2022/09/06 20:40:33;;;;;;;0.40;0.40;;;;;;;;;;7374275;19;20490;-73
2022/09/06 20:43:00;;;;;;;0.30;0.30;;;;;;;;;;7373263;19;20125;-73
2022/09/06 20:45:26;;;;;;;0.30;0.30;;;;;;;;;;7375365;19;20165;-73
2022/09/06 20:47:51;;;;;;;0.30;0.30;;;;;;;;;;7377513;19;20113;-73
2022/09/06 20:50:16;;;;;;;0.30;0.30;;;;;;;;;;7372467;19;20125;-73
2022/09/06 20:52:42;;;;;;;0.30;0.30;;;;;;;;;;7373426;19;20129;-72
2022/09/06 20:55:07;;;;;;;0.30;0.30;;;;;;;;;;7368723;19;20124;-73
2022/09/06 20:57:33;;;;;;;0.35;0.35;;;;;;;;;;7371522;19;20132;-73
2022/09/06 20:59:58;;;;;;;0.30;0.30;;;;;;;;;;7371342;19;20109;-73
2022/09/06 21:02:24;;;;;;;0.30;0.30;;;;;;;;;;7370205;19;20109;-73
2022/09/06 21:04:49;;;;;;;0.30;0.30;;;;;;;;;;7370346;19;20112;-72
2022/09/06 21:07:14;;;;;;;0.85;0.45;;;;;;;;;;7373460;19;20574;-73
2022/09/06 21:09:40;;;;;;;0.30;0.30;;;;;;;;;;7372185;19;20120;-73
2022/09/06 21:12:06;;;;;;;0.40;0.40;;;;;;;;;;7373726;19;20449;-73
2022/09/06 21:14:31;;;;;;;0.30;0.30;;;;;;;;;;7368517;19;20160;-73
2022/09/06 21:16:57;;;;;;;0.30;0.30;;;;;;;;;;7373237;19;20599;-73
2022/09/06 21:19:24;;;;;;;0.40;0.40;;;;;;;;;;7369563;19;20115;-73
2022/09/06 21:21:49;;;;;;;0.47;0.47;;;;;;;;;;7368492;19;20106;-73
2022/09/06 21:24:14;;;;;;;0.70;0.70;;;;;;;;;;7371947;19;20499;-73
2022/09/06 21:26:43;;;;;;;0.40;0.40;;;;;;;;;;7372359;19;20117;-73
2022/09/06 21:29:08;;;;;;;0.40;0.40;;;;;;;;;;7370284;19;21131;-73
2022/09/06 21:31:35;;;;;;;0.30;0.30;;;;;;;;;;7367952;19;20188;-73
2022/09/06 21:34:05;;;;;;;0.30;0.30;;;;;;;;;;7366527;19;20145;-73
2022/09/06 21:36:34;;;;;;;0.40;0.40;;;;;;;;;;7369427;19;20105;-73
2022/09/06 21:39:01;;;;;;;0.30;0.30;;;;;;;;;;7370527;19;20117;-73
2022/09/06 21:41:28;;;;;;;0.30;0.30;;;;;;;;;;7371347;19;20445;-73
2022/09/06 21:43:55;;;;;;;0.45;0.45;;;;;;;;;;7367024;19;20133;-73
2022/09/06 21:46:22;;;;;;;0.43;0.43;;;;;;;;;;7369180;19;20120;-73
2022/09/06 21:48:50;;;;;;;0.43;0.43;;;;;;;;;;7379688;19;20211;-73
2022/09/06 21:51:18;;;;;;;0.30;0.30;;;;;;;;;;7378620;19;20116;-73
2022/09/06 21:53:46;;;;;;;0.32;0.32;;;;;;;;;;7381038;19;20144;-73
2022/09/06 21:56:12;;;;;;;0.40;0.40;;;;;;;;;;7388516;19;20140;-73
2022/09/06 21:58:37;;;;;;;0.30;0.30;;;;;;;;;;7386740;19;20488;-73
2022/09/06 22:01:03;;;;;;;0.30;0.30;;;;;;;;;;7383843;19;20109;-73
2022/09/06 22:03:31;;;;;;;0.30;0.30;;;;;;;;;;7379077;19;20651;-73
2022/09/06 22:05:57;;;;;;;0.30;0.30;;;;;;;;;;7385839;19;20105;-73
2022/09/06 22:08:22;;;;;;;0.30;0.30;;;;;;;;;;7383006;19;20120;-73
2022/09/06 22:10:48;;;;;;;0.40;0.40;;;;;;;;;;7379844;19;20454;-73
2022/09/06 22:13:15;;;;;;;0.30;0.30;;;;;;;;;;7387416;19;20121;-73
2022/09/06 22:15:41;;;;;;;0.30;0.30;;;;;;;;;;7389137;19;20109;-73
2022/09/06 22:18:06;;;;;;;0.35;0.35;;;;;;;;;;7383615;19;20102;-73
2022/09/06 22:20:33;;;;;;;0.68;0.68;;;;;;;;;;7375464;19;20129;-73
2022/09/06 22:23:01;;;;;;;0.50;0.50;;;;;;;;;;7381090;19;20574;-73
2022/09/06 22:25:26;;;;;;;0.30;0.30;;;;;;;;;;7382238;19;20117;-73
2022/09/06 22:27:51;;;;;;;0.30;0.30;;;;;;;;;;7387961;19;20942;-73
2022/09/06 22:30:17;;;;;;;0.30;0.30;;;;;;;;;;7388267;19;20437;-73
2022/09/06 22:32:42;;;;;;;0.40;0.40;;;;;;;;;;7386210;19;20149;-73
2022/09/06 22:35:08;;;;;;;0.30;0.30;;;;;;;;;;7385140;19;20172;-73
2022/09/06 22:37:34;;;;;;;0.30;0.30;;;;;;;;;;7381836;19;20117;-73
2022/09/06 22:40:00;;;;;;;0.30;0.30;;;;;;;;;;7386105;19;20125;-73
2022/09/06 22:42:26;;;;;;;0.30;0.30;;;;;;;;;;7377319;19;20192;-73
2022/09/06 22:44:51;;;;;;;0.30;0.30;;;;;;;;;;7370595;19;20173;-73
2022/09/06 22:47:17;;;;;;;0.30;0.30;;;;;;;;;;7374409;19;20168;-73
2022/09/06 22:49:42;;;;;;;0.30;0.30;;;;;;;;;;7378712;19;20101;-73
2022/09/06 22:52:07;;;;;;;2.83;1.00;;;;;;;;;;7380699;19;20127;-73
2022/09/06 22:54:33;;;;;;;0.30;0.30;;;;;;;;;;7380125;19;20125;-74
2022/09/06 22:56:59;;;;;;;0.30;0.30;;;;;;;;;;7384569;19;20117;-73
2022/09/06 22:59:24;;;;;;;0.30;0.30;;;;;;;;;;7379228;19;20463;-73
2022/09/06 23:01:49;;;;;;;2.15;1.85;;;;;;;;;;7375565;19;20113;-73
2022/09/06 23:04:14;;;;;;;0.30;0.30;;;;;;;;;;7378173;19;20186;-73
2022/09/06 23:06:40;;;;;;;0.32;0.32;;;;;;;;;;7379434;19;20117;-73
2022/09/06 23:09:05;;;;;;;0.30;0.30;;;;;;;;;;7374109;19;20124;-73
2022/09/06 23:11:31;;;;;;;0.30;0.30;;;;;;;;;;7374615;19;20127;-73
2022/09/06 23:13:58;;;;;;;0.20;0.20;;;;;;;;;;7372442;19;20168;-73
2022/09/06 23:16:24;;;;;;;0.30;0.30;;;;;;;;;;7383596;19;20107;-73
2022/09/06 23:18:49;;;;;;;0.30;0.30;;;;;;;;;;7376497;19;20097;-73
2022/09/06 23:21:20;;;;;;;0.30;0.30;;;;;;;;;;7376913;19;20475;-73
2022/09/06 23:23:46;;;;;;;0.75;0.75;;;;;;;;;;7375161;19;20121;-73
2022/09/06 23:26:14;;;;;;;0.40;0.40;;;;;;;;;;7379797;19;20133;-73
2022/09/06 23:28:40;;;;;;;0.30;0.30;;;;;;;;;;7379093;19;20132;-73
2022/09/06 23:31:07;;;;;;;0.30;0.30;;;;;;;;;;7377133;19;20114;-72
2022/09/06 23:33:35;;;;;;;0.40;0.40;;;;;;;;;;7372742;19;20133;-73
2022/09/06 23:36:00;;;;;;;0.30;0.30;;;;;;;;;;7370323;19;20462;-73
2022/09/06 23:38:25;;;;;;;0.30;0.30;;;;;;;;;;7375818;19;20505;-73
2022/09/06 23:40:51;;;;;;;0.30;0.30;;;;;;;;;;7375853;19;20628;-73
2022/09/06 23:43:16;;;;;;;0.30;0.30;;;;;;;;;;7371175;19;20497;-73
2022/09/06 23:45:42;;;;;;;0.30;0.30;;;;;;;;;;7373187;19;20169;-73
2022/09/06 23:48:07;;;;;;;0.30;0.30;;;;;;;;;;7378366;19;20109;-73
2022/09/06 23:50:32;;;;;;;0.30;0.30;;;;;;;;;;7379085;19;20112;-73
2022/09/06 23:52:58;;;;;;;0.30;0.30;;;;;;;;;;7373780;19;20125;-73
2022/09/06 23:55:23;;;;;;;0.30;0.30;;;;;;;;;;7376198;19;20607;-73
2022/09/06 23:57:48;;;;;;;0.30;0.30;;;;;;;;;;7377198;19;20101;-73
